DEDUS EDLP-EDDG
Flight info
| Callsign | DEDUS |
|---|---|
| Flight time | 0h 23m |
| Altitude | |
| Route | |
| Aircraft | C172 |
Departure
| Time | 2026-04-27 14:52 |
|---|---|
| Airport | Paderborn Lippstadt Airport (EDLP) |
Arrival
| Time | 2026-04-27 15:15 |
|---|---|
| Airport | Münster Osnabrück Airport (EDDG) |
| Time | Latitude | Longitude | Altitude | Speed | Heading |
|---|---|---|---|---|---|
| 2026-04-27 14:52 | 51.70812 | 8.60408 | 2004 ft | 113 kts | 328° |
| 2026-04-27 14:52 | 51.71431 | 8.59713 | 2320 ft | 96 kts | 328° |
| 2026-04-27 14:52 | 51.71974 | 8.59090 | 2514 ft | 96 kts | 328° |
| 2026-04-27 14:52 | 51.72495 | 8.58483 | 2768 ft | 91 kts | 328° |
| 2026-04-27 14:53 | 51.73003 | 8.57878 | 2977 ft | 92 kts | 328° |
| 2026-04-27 14:53 | 51.73515 | 8.57264 | 3195 ft | 91 kts | 328° |
| 2026-04-27 14:53 | 51.74018 | 8.56656 | 3397 ft | 91 kts | 327° |
| 2026-04-27 14:53 | 51.74528 | 8.56048 | 3598 ft | 91 kts | 328° |
| 2026-04-27 14:54 | 51.75037 | 8.55447 | 3791 ft | 91 kts | 327° |
| 2026-04-27 14:54 | 51.75559 | 8.54845 | 3983 ft | 91 kts | 328° |
| 2026-04-27 14:54 | 51.76076 | 8.54248 | 4167 ft | 92 kts | 328° |
| 2026-04-27 14:54 | 51.76593 | 8.53651 | 4353 ft | 92 kts | 328° |
| 2026-04-27 14:55 | 51.77131 | 8.53028 | 4465 ft | 100 kts | 328° |
| 2026-04-27 14:55 | 51.77739 | 8.52335 | 4480 ft | 112 kts | 329° |
| 2026-04-27 14:55 | 51.78400 | 8.51595 | 4482 ft | 119 kts | 328° |
| 2026-04-27 14:55 | 51.79100 | 8.50810 | 4479 ft | 123 kts | 329° |
| 2026-04-27 14:56 | 51.79797 | 8.50006 | 4474 ft | 125 kts | 322° |
| 2026-04-27 14:56 | 51.80363 | 8.48907 | 4473 ft | 124 kts | 310° |
| 2026-04-27 14:56 | 51.80862 | 8.47788 | 4472 ft | 121 kts | 308° |
| 2026-04-27 14:56 | 51.81347 | 8.46670 | 4473 ft | 120 kts | 308° |
| 2026-04-27 14:57 | 51.81818 | 8.45567 | 4472 ft | 119 kts | 307° |
| 2026-04-27 14:57 | 51.82288 | 8.44461 | 4474 ft | 118 kts | 307° |
| 2026-04-27 14:57 | 51.82754 | 8.43355 | 4474 ft | 118 kts | 307° |
| 2026-04-27 14:57 | 51.83219 | 8.42246 | 4475 ft | 118 kts | 307° |
| 2026-04-27 14:58 | 51.83679 | 8.41147 | 4473 ft | 118 kts | 307° |
| 2026-04-27 14:58 | 51.84141 | 8.40042 | 4474 ft | 118 kts | 307° |
| 2026-04-27 14:58 | 51.84604 | 8.38929 | 4474 ft | 118 kts | 308° |
| 2026-04-27 14:58 | 51.85064 | 8.37827 | 4471 ft | 119 kts | 308° |
| 2026-04-27 14:59 | 51.85529 | 8.36709 | 4467 ft | 119 kts | 308° |
| 2026-04-27 14:59 | 51.85990 | 8.35599 | 4464 ft | 119 kts | 308° |
| 2026-04-27 14:59 | 51.86460 | 8.34468 | 4463 ft | 119 kts | 306° |
| 2026-04-27 14:59 | 51.86920 | 8.33353 | 4461 ft | 119 kts | 306° |
| 2026-04-27 15:00 | 51.87380 | 8.32237 | 4457 ft | 120 kts | 306° |
| 2026-04-27 15:00 | 51.87843 | 8.31110 | 4454 ft | 119 kts | 306° |
| 2026-04-27 15:00 | 51.88306 | 8.29987 | 4454 ft | 119 kts | 306° |
| 2026-04-27 15:00 | 51.88766 | 8.28873 | 4454 ft | 118 kts | 307° |
| 2026-04-27 15:01 | 51.89229 | 8.27755 | 4459 ft | 118 kts | 307° |
| 2026-04-27 15:01 | 51.89689 | 8.26642 | 4458 ft | 118 kts | 307° |
| 2026-04-27 15:01 | 51.90145 | 8.25540 | 4459 ft | 118 kts | 307° |
| 2026-04-27 15:01 | 51.90602 | 8.24434 | 4461 ft | 118 kts | 307° |
| 2026-04-27 15:02 | 51.91064 | 8.23315 | 4464 ft | 118 kts | 307° |
| 2026-04-27 15:02 | 51.91517 | 8.22219 | 4464 ft | 118 kts | 306° |
| 2026-04-27 15:02 | 51.91980 | 8.21101 | 4466 ft | 118 kts | 306° |
| 2026-04-27 15:02 | 51.92445 | 8.19974 | 4472 ft | 118 kts | 306° |
| 2026-04-27 15:03 | 51.92900 | 8.18871 | 4473 ft | 119 kts | 306° |
| 2026-04-27 15:03 | 51.93365 | 8.17743 | 4471 ft | 119 kts | 306° |
| 2026-04-27 15:03 | 51.93829 | 8.16617 | 4472 ft | 119 kts | 306° |
| 2026-04-27 15:03 | 51.94289 | 8.15501 | 4477 ft | 119 kts | 306° |
| 2026-04-27 15:04 | 51.94749 | 8.14384 | 4477 ft | 119 kts | 306° |
| 2026-04-27 15:04 | 51.95210 | 8.13262 | 4477 ft | 119 kts | 306° |
| 2026-04-27 15:04 | 51.95676 | 8.12130 | 4477 ft | 119 kts | 306° |
| 2026-04-27 15:04 | 51.96136 | 8.11012 | 4477 ft | 119 kts | 306° |
| 2026-04-27 15:05 | 51.96596 | 8.09890 | 4475 ft | 119 kts | 306° |
| 2026-04-27 15:05 | 51.97063 | 8.08757 | 4473 ft | 119 kts | 306° |
| 2026-04-27 15:05 | 51.97524 | 8.07634 | 4475 ft | 119 kts | 306° |
| 2026-04-27 15:05 | 51.97984 | 8.06513 | 4475 ft | 119 kts | 306° |
| 2026-04-27 15:06 | 51.98445 | 8.05390 | 4473 ft | 119 kts | 306° |
| 2026-04-27 15:06 | 51.98906 | 8.04267 | 4459 ft | 119 kts | 306° |
| 2026-04-27 15:06 | 51.99365 | 8.03149 | 4413 ft | 119 kts | 307° |
| 2026-04-27 15:06 | 51.99821 | 8.02036 | 4357 ft | 119 kts | 307° |
| 2026-04-27 15:07 | 52.00286 | 8.00904 | 4306 ft | 119 kts | 307° |
| 2026-04-27 15:07 | 52.00740 | 7.99798 | 4173 ft | 118 kts | 308° |
| 2026-04-27 15:07 | 52.01197 | 7.98689 | 3997 ft | 117 kts | 308° |
| 2026-04-27 15:07 | 52.01648 | 7.97593 | 3780 ft | 118 kts | 308° |
| 2026-04-27 15:08 | 52.02110 | 7.96468 | 3571 ft | 118 kts | 308° |
| 2026-04-27 15:08 | 52.02562 | 7.95362 | 3359 ft | 118 kts | 308° |
| 2026-04-27 15:08 | 52.03017 | 7.94251 | 3153 ft | 117 kts | 308° |
| 2026-04-27 15:08 | 52.03471 | 7.93139 | 2951 ft | 117 kts | 308° |
| 2026-04-27 15:09 | 52.03920 | 7.92039 | 2777 ft | 117 kts | 308° |
| 2026-04-27 15:09 | 52.04374 | 7.90922 | 2616 ft | 118 kts | 308° |
| 2026-04-27 15:09 | 52.04831 | 7.89799 | 2539 ft | 120 kts | 308° |
| 2026-04-27 15:09 | 52.05288 | 7.88671 | 2495 ft | 122 kts | 307° |
| 2026-04-27 15:10 | 52.05759 | 7.87510 | 2480 ft | 119 kts | 308° |
| 2026-04-27 15:10 | 52.06210 | 7.86398 | 2480 ft | 116 kts | 308° |
| 2026-04-27 15:10 | 52.06690 | 7.85357 | 2483 ft | 114 kts | 313° |
| 2026-04-27 15:10 | 52.07187 | 7.84350 | 2480 ft | 113 kts | 313° |
| 2026-04-27 15:11 | 52.07681 | 7.83352 | 2484 ft | 112 kts | 314° |
| 2026-04-27 15:11 | 52.08172 | 7.82360 | 2485 ft | 112 kts | 314° |
| 2026-04-27 15:11 | 52.08670 | 7.81358 | 2483 ft | 113 kts | 314° |
| 2026-04-27 15:11 | 52.09070 | 7.80264 | 2480 ft | 115 kts | 294° |
| 2026-04-27 15:12 | 52.09374 | 7.79024 | 2400 ft | 121 kts | 297° |
| 2026-04-27 15:12 | 52.09710 | 7.77742 | 2254 ft | 123 kts | 297° |
| 2026-04-27 15:12 | 52.10011 | 7.76451 | 2120 ft | 120 kts | 295° |
| 2026-04-27 15:12 | 52.10294 | 7.75169 | 2017 ft | 118 kts | 293° |
| 2026-04-27 15:13 | 52.10557 | 7.73896 | 1876 ft | 120 kts | 292° |
| 2026-04-27 15:13 | 52.10812 | 7.72592 | 1648 ft | 118 kts | 291° |
| 2026-04-27 15:13 | 52.11026 | 7.71369 | 1382 ft | 106 kts | 290° |
| 2026-04-27 15:13 | 52.11187 | 7.70258 | 1165 ft | 98 kts | 289° |
| 2026-04-27 15:14 | 52.11356 | 7.69201 | 1039 ft | 95 kts | 291° |
| 2026-04-27 15:14 | 52.11532 | 7.68162 | 883 ft | 93 kts | 293° |
| 2026-04-27 15:14 | 52.11741 | 7.67237 | 722 ft | 82 kts | 304° |
| 2026-04-27 15:14 | 52.12071 | 7.66544 | 585 ft | 72 kts | 330° |
| 2026-04-27 15:15 | 52.12495 | 7.66254 | 440 ft | 64 kts | 358° |
| 2026-04-27 15:15 | 52.12889 | 7.66310 | 339 ft | 53 kts | 32° |
| 2026-04-27 15:15 | 52.13098 | 7.66781 | 216 ft | 52 kts | 66° |
| 2026-04-27 15:15 | 52.13216 | 7.67319 | 172 ft | 48 kts | 70° |
| 2026-04-27 15:16 | 52.13327 | 7.67840 | 160 ft | 47 kts | 66° |
| 2026-04-27 15:16 | 52.13394 | 7.68179 | 154 ft | 13 kts | 91° |
| 2026-04-27 15:16 | 52.13343 | 7.68269 | 154 ft | 10 kts | 157° |
| 2026-04-27 15:16 | 52.13279 | 7.68309 | 154 ft | 9 kts | 164° |
| 2026-04-27 15:17 | 52.13201 | 7.68323 | 154 ft | 12 kts | 225° |
| 2026-04-27 15:17 | 52.13157 | 7.68259 | 154 ft | 5 kts | 273° |
| 2026-04-27 15:17 | 52.13157 | 7.68232 | 154 ft | 0 kts | 270° |